Scappoose, OR

8:49 PM PDT on September 17, 2014 (GMT -0700)
Scappoose Industrial | Change Station
CLOSE
Current Station
Airport
Location: Scappoose,
Elevation: 56 ft
Nearby Weather Stations
4.0 Earthquake: Seabeck, Washington (17 hours ago)  

Elev 56 ft 45.77 °N, 122.86 °W | Updated 56 minutes ago

Overcast
Overcast
70 °F
Feels Like 70 °F
N
9
Wind Variable Wind from NNW

Today
High -- | Low -- °F
--% Chance of Precip.
Yesterday
High -- | Low -- °F
Precip. -- in
6:52 AM 7:18 PM
Waning Crescent, 30% visible
Pressure 29.72 in
Visibility 10.0 miles
Clouds Clear
Dew Point 58 °F
Humidity 65%
Rainfall 0.00 in
Snow Depth 0 in , 0 in , 0 in
UV 0 out of 12
Pollen 2.40 out of 12
Air Quality Not available.
Flu Activity Not available.
METAR KSPB 180253Z AUTO 34008KT 10SM CLR 21/14 A2972 RMK AO2 SLP063 60000 T02110144 53004

More Conditions Fewer Conditions

Pressure 29.72 in
Visibility 10.0 miles
Clouds Clear
Dew Point 58 °F
Humidity 65%
Rainfall 0.00 in
Snow Depth 0 in , 0 in , 0 in
UV 0 out of 12
Pollen 2.40 out of 12
Air Quality Not available.
Flu Activity Not available.
METAR KSPB 180253Z AUTO 34008KT 10SM CLR 21/14 A2972 RMK AO2 SLP063 60000 T02110144 53004

More Conditions Fewer Conditions

10-Day Weather Forecast

Almanac

Astronomy

Sep. 17, 2014 Rise Set
Actual Time 6:52 AM PDT 7:18 PM PDT
Civil Twilight 6:22 AM PDT 7:48 PM PDT
Nautical Twilight 5:47 AM PDT 8:23 PM PDT
Astronomical Twilight 5:10 AM PDT 8:59 PM PDT
Moon 12:43 AM PDT (9/17) 3:44 PM PDT (9/17)
Length of Visible Light 13h 25m
Length of Day
12h 26m
Tomorrow will be 3m 11s shorter.
Waning Crescent, 30% of the Moon is Illuminated
Today
Waning Crescent
Sep 24
New
Oct 1
First Quarter
Oct 8
Full
Oct 15
Last Quarter

Today's Extremes

State Highs State Lows

Community

WunderPhotos

Upload Photos

1,754,283 photos uploaded!

Nearby

Snow Depth

Station Depth Elevation
Tipton 0 in 5150 ft
Diamond Lake 0 in 5315 ft
Madison Butte 0 in 5250 ft
Clackamas Lake 0 in 3400 ft
Blue Mountain Spring 0 in 5900 ft

Earthquake Activity

City Distance Mag. Time & Date
Seabeck, Washington 123 miles 4.0 3:06 AM PDT
2014-09-17
Morton, Washington 44 miles 3.0 5:43 AM PDT
2014-09-16
Minimum magnitude displayed is 2.5.

Coastal Water Temperatures

Place Temperature
No Stations Reporting

Nearby Weather Stations